sensor_id;sensor_type;location;lat;lon;timestamp;temperature;humidity
69715;HTU21D;56981;53.532;49.398;2022-09-30T00:01:49;12.00;91.01
69715;HTU21D;56981;53.532;49.398;2022-09-30T00:04:22;12.00;90.89
69715;HTU21D;56981;53.532;49.398;2022-09-30T00:06:51;11.99;90.51
69715;HTU21D;56981;53.532;49.398;2022-09-30T00:09:17;11.98;90.32
69715;HTU21D;56981;53.532;49.398;2022-09-30T00:11:44;11.99;90.25
69715;HTU21D;56981;53.532;49.398;2022-09-30T00:14:17;11.97;90.09
69715;HTU21D;56981;53.532;49.398;2022-09-30T00:16:43;11.94;90.35
69715;HTU21D;56981;53.532;49.398;2022-09-30T00:19:10;11.92;90.39
69715;HTU21D;56981;53.532;49.398;2022-09-30T00:21:36;11.87;90.02
69715;HTU21D;56981;53.532;49.398;2022-09-30T00:24:03;11.86;90.17
69715;HTU21D;56981;53.532;49.398;2022-09-30T00:26:30;11.78;90.50
69715;HTU21D;56981;53.532;49.398;2022-09-30T00:28:58;11.77;90.49
69715;HTU21D;56981;53.532;49.398;2022-09-30T00:31:28;11.76;90.24
69715;HTU21D;56981;53.532;49.398;2022-09-30T00:33:55;11.78;90.34
69715;HTU21D;56981;53.532;49.398;2022-09-30T00:36:41;11.81;89.81
69715;HTU21D;56981;53.532;49.398;2022-09-30T00:39:13;11.79;89.73
69715;HTU21D;56981;53.532;49.398;2022-09-30T00:41:39;11.83;89.78
69715;HTU21D;56981;53.532;49.398;2022-09-30T00:49:47;11.90;90.41
69715;HTU21D;56981;53.532;49.398;2022-09-30T00:52:13;11.93;89.76
69715;HTU21D;56981;53.532;49.398;2022-09-30T00:54:40;11.93;90.06
69715;HTU21D;56981;53.532;49.398;2022-09-30T00:57:07;11.90;90.07
69715;HTU21D;56981;53.532;49.398;2022-09-30T00:59:42;11.93;90.16
69715;HTU21D;56981;53.532;49.398;2022-09-30T01:02:10;11.86;90.38
69715;HTU21D;56981;53.532;49.398;2022-09-30T01:04:40;11.82;90.25
69715;HTU21D;56981;53.532;49.398;2022-09-30T01:07:08;11.81;90.15
69715;HTU21D;56981;53.532;49.398;2022-09-30T01:09:36;11.78;90.38
69715;HTU21D;56981;53.532;49.398;2022-09-30T01:12:09;11.78;90.43
69715;HTU21D;56981;53.532;49.398;2022-09-30T01:14:37;11.76;90.26
69715;HTU21D;56981;53.532;49.398;2022-09-30T01:22:59;11.69;90.18
69715;HTU21D;56981;53.532;49.398;2022-09-30T01:28:46;11.53;90.06
69715;HTU21D;56981;53.532;49.398;2022-09-30T01:31:54;11.52;90.26
69715;HTU21D;56981;53.532;49.398;2022-09-30T01:37:13;11.55;90.41
69715;HTU21D;56981;53.532;49.398;2022-09-30T01:42:13;11.45;90.27
69715;HTU21D;56981;53.532;49.398;2022-09-30T01:47:15;11.38;90.71
69715;HTU21D;56981;53.532;49.398;2022-09-30T01:49:48;11.31;90.83
69715;HTU21D;56981;53.532;49.398;2022-09-30T01:52:28;11.32;90.81
69715;HTU21D;56981;53.532;49.398;2022-09-30T01:54:58;11.34;90.73
69715;HTU21D;56981;53.532;49.398;2022-09-30T02:00:21;11.30;89.86
69715;HTU21D;56981;53.532;49.398;2022-09-30T02:02:55;11.20;89.99
69715;HTU21D;56981;53.532;49.398;2022-09-30T02:08:29;11.19;90.24
69715;HTU21D;56981;53.532;49.398;2022-09-30T02:11:04;11.17;90.34
69715;HTU21D;56981;53.532;49.398;2022-09-30T02:13:47;11.16;90.06
69715;HTU21D;56981;53.532;49.398;2022-09-30T02:16:21;11.15;90.03
69715;HTU21D;56981;53.532;49.398;2022-09-30T02:18:52;11.16;90.16
69715;HTU21D;56981;53.532;49.398;2022-09-30T02:21:27;11.16;90.41
69715;HTU21D;56981;53.532;49.398;2022-09-30T02:24:01;11.14;90.51
69715;HTU21D;56981;53.532;49.398;2022-09-30T02:26:35;11.19;90.30
69715;HTU21D;56981;53.532;49.398;2022-09-30T02:29:18;11.19;90.19
69715;HTU21D;56981;53.532;49.398;2022-09-30T02:31:50;11.16;89.43
69715;HTU21D;56981;53.532;49.398;2022-09-30T02:34:34;11.10;89.39
69715;HTU21D;56981;53.532;49.398;2022-09-30T02:37:20;11.08;89.77
69715;HTU21D;56981;53.532;49.398;2022-09-30T02:42:36;11.04;90.30
69715;HTU21D;56981;53.532;49.398;2022-09-30T02:45:16;11.04;89.86
69715;HTU21D;56981;53.532;49.398;2022-09-30T02:48:05;11.01;89.65
69715;HTU21D;56981;53.532;49.398;2022-09-30T02:50:42;10.96;89.89
69715;HTU21D;56981;53.532;49.398;2022-09-30T02:53:25;10.97;89.80
69715;HTU21D;56981;53.532;49.398;2022-09-30T02:56:16;10.99;89.58
69715;HTU21D;56981;53.532;49.398;2022-09-30T02:58:45;11.00;89.21
69715;HTU21D;56981;53.532;49.398;2022-09-30T03:01:13;10.99;88.98
69715;HTU21D;56981;53.532;49.398;2022-09-30T03:03:44;10.99;89.15
69715;HTU21D;56981;53.532;49.398;2022-09-30T03:06:11;11.01;89.38
69715;HTU21D;56981;53.532;49.398;2022-09-30T03:08:38;11.04;89.52
69715;HTU21D;56981;53.532;49.398;2022-09-30T03:11:05;11.05;89.13
69715;HTU21D;56981;53.532;49.398;2022-09-30T03:19:00;11.04;88.72
69715;HTU21D;56981;53.532;49.398;2022-09-30T03:22:04;11.02;88.66
69715;HTU21D;56981;53.532;49.398;2022-09-30T03:30:23;10.98;88.70
69715;HTU21D;56981;53.532;49.398;2022-09-30T03:38:35;11.01;88.67
69715;HTU21D;56981;53.532;49.398;2022-09-30T03:43:48;11.10;88.34
69715;HTU21D;56981;53.532;49.398;2022-09-30T03:46:33;11.08;88.09
69715;HTU21D;56981;53.532;49.398;2022-09-30T03:49:02;11.08;87.32
69715;HTU21D;56981;53.532;49.398;2022-09-30T03:51:31;11.08;87.60
69715;HTU21D;56981;53.532;49.398;2022-09-30T03:54:00;11.08;87.71
69715;HTU21D;56981;53.532;49.398;2022-09-30T03:56:28;11.13;87.54
69715;HTU21D;56981;53.532;49.398;2022-09-30T03:58:55;11.16;87.96
69715;HTU21D;56981;53.532;49.398;2022-09-30T04:01:21;11.22;87.53
69715;HTU21D;56981;53.532;49.398;2022-09-30T04:03:51;11.29;87.60
69715;HTU21D;56981;53.532;49.398;2022-09-30T04:06:22;11.27;86.62
69715;HTU21D;56981;53.532;49.398;2022-09-30T04:08:49;11.26;86.27
69715;HTU21D;56981;53.532;49.398;2022-09-30T04:11:16;11.23;86.51
69715;HTU21D;56981;53.532;49.398;2022-09-30T04:13:42;11.25;86.48
69715;HTU21D;56981;53.532;49.398;2022-09-30T04:16:08;11.24;86.36
69715;HTU21D;56981;53.532;49.398;2022-09-30T04:18:35;11.29;86.19
69715;HTU21D;56981;53.532;49.398;2022-09-30T04:21:07;11.36;85.95
69715;HTU21D;56981;53.532;49.398;2022-09-30T04:23:35;11.34;85.82
69715;HTU21D;56981;53.532;49.398;2022-09-30T04:26:01;11.41;86.41
69715;HTU21D;56981;53.532;49.398;2022-09-30T04:28:27;11.42;85.72
69715;HTU21D;56981;53.532;49.398;2022-09-30T04:30:53;11.45;86.16
69715;HTU21D;56981;53.532;49.398;2022-09-30T04:33:19;11.45;85.81
69715;HTU21D;56981;53.532;49.398;2022-09-30T04:35:45;11.51;85.96
69715;HTU21D;56981;53.532;49.398;2022-09-30T04:38:11;11.55;85.58
69715;HTU21D;56981;53.532;49.398;2022-09-30T04:40:37;11.62;85.93
69715;HTU21D;56981;53.532;49.398;2022-09-30T04:43:04;11.66;86.63
69715;HTU21D;56981;53.532;49.398;2022-09-30T04:45:31;11.70;85.65
69715;HTU21D;56981;53.532;49.398;2022-09-30T04:47:57;11.73;84.94
69715;HTU21D;56981;53.532;49.398;2022-09-30T04:50:23;11.76;84.43
69715;HTU21D;56981;53.532;49.398;2022-09-30T04:52:49;11.79;84.27
69715;HTU21D;56981;53.532;49.398;2022-09-30T04:55:15;11.81;83.87
69715;HTU21D;56981;53.532;49.398;2022-09-30T04:57:44;11.81;83.70
69715;HTU21D;56981;53.532;49.398;2022-09-30T05:00:13;11.82;83.30
69715;HTU21D;56981;53.532;49.398;2022-09-30T05:02:42;11.78;83.61
69715;HTU21D;56981;53.532;49.398;2022-09-30T05:05:08;11.75;83.60
69715;HTU21D;56981;53.532;49.398;2022-09-30T05:07:34;11.73;83.87
69715;HTU21D;56981;53.532;49.398;2022-09-30T05:10:00;11.69;83.61
69715;HTU21D;56981;53.532;49.398;2022-09-30T05:12:26;11.61;84.12
69715;HTU21D;56981;53.532;49.398;2022-09-30T05:14:52;11.66;84.15
69715;HTU21D;56981;53.532;49.398;2022-09-30T05:17:18;11.72;83.72
69715;HTU21D;56981;53.532;49.398;2022-09-30T05:19:44;11.73;83.52
69715;HTU21D;56981;53.532;49.398;2022-09-30T05:22:10;11.75;83.79
69715;HTU21D;56981;53.532;49.398;2022-09-30T05:24:38;11.83;83.25
69715;HTU21D;56981;53.532;49.398;2022-09-30T05:27:04;11.77;83.69
69715;HTU21D;56981;53.532;49.398;2022-09-30T05:29:31;11.83;83.66
69715;HTU21D;56981;53.532;49.398;2022-09-30T05:31:57;11.85;83.40
69715;HTU21D;56981;53.532;49.398;2022-09-30T05:34:23;11.92;83.68
69715;HTU21D;56981;53.532;49.398;2022-09-30T05:36:49;12.02;83.28
69715;HTU21D;56981;53.532;49.398;2022-09-30T05:39:16;12.14;82.93
69715;HTU21D;56981;53.532;49.398;2022-09-30T05:41:42;12.17;82.28
69715;HTU21D;56981;53.532;49.398;2022-09-30T05:44:08;12.21;82.86
69715;HTU21D;56981;53.532;49.398;2022-09-30T05:46:34;12.27;82.51
69715;HTU21D;56981;53.532;49.398;2022-09-30T05:49:00;12.26;81.97
69715;HTU21D;56981;53.532;49.398;2022-09-30T05:51:26;12.33;81.91
69715;HTU21D;56981;53.532;49.398;2022-09-30T05:53:52;12.35;82.11
69715;HTU21D;56981;53.532;49.398;2022-09-30T05:56:18;12.36;80.85
69715;HTU21D;56981;53.532;49.398;2022-09-30T05:58:44;12.33;81.68
69715;HTU21D;56981;53.532;49.398;2022-09-30T06:01:13;12.38;82.29
69715;HTU21D;56981;53.532;49.398;2022-09-30T06:03:43;12.44;81.73
69715;HTU21D;56981;53.532;49.398;2022-09-30T06:06:10;12.53;81.65
69715;HTU21D;56981;53.532;49.398;2022-09-30T06:08:48;12.60;80.85
69715;HTU21D;56981;53.532;49.398;2022-09-30T06:11:16;12.76;80.22
69715;HTU21D;56981;53.532;49.398;2022-09-30T06:13:45;12.87;80.00
69715;HTU21D;56981;53.532;49.398;2022-09-30T06:16:17;12.82;80.11
69715;HTU21D;56981;53.532;49.398;2022-09-30T06:18:44;12.89;79.84
69715;HTU21D;56981;53.532;49.398;2022-09-30T06:21:13;12.93;79.21
69715;HTU21D;56981;53.532;49.398;2022-09-30T06:23:40;13.00;79.40
69715;HTU21D;56981;53.532;49.398;2022-09-30T06:26:08;13.12;78.94
69715;HTU21D;56981;53.532;49.398;2022-09-30T06:28:36;13.23;78.95
69715;HTU21D;56981;53.532;49.398;2022-09-30T06:31:03;13.36;77.64
69715;HTU21D;56981;53.532;49.398;2022-09-30T06:33:29;13.53;77.82
69715;HTU21D;56981;53.532;49.398;2022-09-30T06:35:57;13.67;76.45
69715;HTU21D;56981;53.532;49.398;2022-09-30T06:38:23;13.69;76.18
69715;HTU21D;56981;53.532;49.398;2022-09-30T06:40:49;13.82;76.42
69715;HTU21D;56981;53.532;49.398;2022-09-30T06:43:18;13.88;75.79
69715;HTU21D;56981;53.532;49.398;2022-09-30T06:45:47;13.96;75.86
69715;HTU21D;56981;53.532;49.398;2022-09-30T06:48:13;13.95;75.14
69715;HTU21D;56981;53.532;49.398;2022-09-30T06:50:41;13.91;75.01
69715;HTU21D;56981;53.532;49.398;2022-09-30T06:53:09;13.89;75.37
69715;HTU21D;56981;53.532;49.398;2022-09-30T06:55:37;13.91;75.99
69715;HTU21D;56981;53.532;49.398;2022-09-30T06:58:08;13.84;75.24
69715;HTU21D;56981;53.532;49.398;2022-09-30T07:00:37;13.97;75.47
69715;HTU21D;56981;53.532;49.398;2022-09-30T07:03:04;14.19;74.92
69715;HTU21D;56981;53.532;49.398;2022-09-30T07:05:35;14.44;73.50
69715;HTU21D;56981;53.532;49.398;2022-09-30T07:08:02;14.54;73.72
69715;HTU21D;56981;53.532;49.398;2022-09-30T07:10:28;14.63;72.48
69715;HTU21D;56981;53.532;49.398;2022-09-30T07:12:54;14.66;72.25
69715;HTU21D;56981;53.532;49.398;2022-09-30T07:15:20;14.73;72.06
69715;HTU21D;56981;53.532;49.398;2022-09-30T07:17:54;14.84;71.37
69715;HTU21D;56981;53.532;49.398;2022-09-30T07:20:23;15.09;71.18
69715;HTU21D;56981;53.532;49.398;2022-09-30T07:22:50;15.29;70.11
69715;HTU21D;56981;53.532;49.398;2022-09-30T07:25:16;15.38;69.92
69715;HTU21D;56981;53.532;49.398;2022-09-30T07:27:42;15.47;69.55
69715;HTU21D;56981;53.532;49.398;2022-09-30T07:30:10;15.67;68.96
69715;HTU21D;56981;53.532;49.398;2022-09-30T07:32:37;15.91;67.53
69715;HTU21D;56981;53.532;49.398;2022-09-30T07:35:03;16.06;68.33
69715;HTU21D;56981;53.532;49.398;2022-09-30T07:37:30;16.10;67.54
69715;HTU21D;56981;53.532;49.398;2022-09-30T07:40:03;15.91;68.14
69715;HTU21D;56981;53.532;49.398;2022-09-30T07:42:29;15.97;67.91
69715;HTU21D;56981;53.532;49.398;2022-09-30T07:44:55;15.91;67.39
69715;HTU21D;56981;53.532;49.398;2022-09-30T07:47:21;15.69;68.94
69715;HTU21D;56981;53.532;49.398;2022-09-30T07:49:48;15.48;69.78
69715;HTU21D;56981;53.532;49.398;2022-09-30T07:52:14;15.37;70.08
69715;HTU21D;56981;53.532;49.398;2022-09-30T07:54:41;15.28;70.40
69715;HTU21D;56981;53.532;49.398;2022-09-30T07:57:07;15.22;70.91
69715;HTU21D;56981;53.532;49.398;2022-09-30T07:59:36;15.07;71.64
69715;HTU21D;56981;53.532;49.398;2022-09-30T08:02:04;14.98;72.23
69715;HTU21D;56981;53.532;49.398;2022-09-30T08:04:30;14.97;72.66
69715;HTU21D;56981;53.532;49.398;2022-09-30T08:06:58;14.89;72.17
69715;HTU21D;56981;53.532;49.398;2022-09-30T08:09:26;14.80;72.73
69715;HTU21D;56981;53.532;49.398;2022-09-30T08:11:53;14.58;73.85
69715;HTU21D;56981;53.532;49.398;2022-09-30T08:14:22;14.54;74.92
69715;HTU21D;56981;53.532;49.398;2022-09-30T08:16:48;14.49;74.28
69715;HTU21D;56981;53.532;49.398;2022-09-30T08:19:17;14.45;73.61
69715;HTU21D;56981;53.532;49.398;2022-09-30T08:21:44;14.20;75.24
69715;HTU21D;56981;53.532;49.398;2022-09-30T08:24:11;14.20;75.58
69715;HTU21D;56981;53.532;49.398;2022-09-30T08:26:37;14.24;75.19
69715;HTU21D;56981;53.532;49.398;2022-09-30T08:29:04;14.26;75.31
69715;HTU21D;56981;53.532;49.398;2022-09-30T08:31:31;14.22;75.83
69715;HTU21D;56981;53.532;49.398;2022-09-30T08:33:58;14.29;75.47
69715;HTU21D;56981;53.532;49.398;2022-09-30T08:36:26;14.45;75.88
69715;HTU21D;56981;53.532;49.398;2022-09-30T08:38:53;14.35;75.78
69715;HTU21D;56981;53.532;49.398;2022-09-30T08:44:17;14.59;73.82
69715;HTU21D;56981;53.532;49.398;2022-09-30T08:49:56;14.54;74.70
69715;HTU21D;56981;53.532;49.398;2022-09-30T08:52:26;14.67;74.43
69715;HTU21D;56981;53.532;49.398;2022-09-30T08:54:54;14.55;73.86
69715;HTU21D;56981;53.532;49.398;2022-09-30T08:57:22;14.73;73.32
69715;HTU21D;56981;53.532;49.398;2022-09-30T08:59:55;14.74;73.03
69715;HTU21D;56981;53.532;49.398;2022-09-30T09:02:26;14.82;73.24
69715;HTU21D;56981;53.532;49.398;2022-09-30T09:04:58;14.78;73.50
69715;HTU21D;56981;53.532;49.398;2022-09-30T09:07:51;14.81;73.52
69715;HTU21D;56981;53.532;49.398;2022-09-30T09:10:26;14.82;72.51
69715;HTU21D;56981;53.532;49.398;2022-09-30T09:21:28;15.07;71.56
69715;HTU21D;56981;53.532;49.398;2022-09-30T09:23:59;15.15;72.13
69715;HTU21D;56981;53.532;49.398;2022-09-30T09:26:29;15.15;70.69
69715;HTU21D;56981;53.532;49.398;2022-09-30T09:31:47;15.37;70.61
69715;HTU21D;56981;53.532;49.398;2022-09-30T09:34:13;15.48;71.00
69715;HTU21D;56981;53.532;49.398;2022-09-30T09:43:26;15.10;71.01
69715;HTU21D;56981;53.532;49.398;2022-09-30T09:48:39;14.98;72.10
69715;HTU21D;56981;53.532;49.398;2022-09-30T09:51:30;14.94;72.15
69715;HTU21D;56981;53.532;49.398;2022-09-30T09:54:00;14.85;73.07
69715;HTU21D;56981;53.532;49.398;2022-09-30T09:56:28;14.79;73.12
69715;HTU21D;56981;53.532;49.398;2022-09-30T10:04:13;14.75;73.54
69715;HTU21D;56981;53.532;49.398;2022-09-30T10:06:50;14.64;73.49
69715;HTU21D;56981;53.532;49.398;2022-09-30T10:09:35;14.67;73.77
69715;HTU21D;56981;53.532;49.398;2022-09-30T10:17:04;14.80;73.35
69715;HTU21D;56981;53.532;49.398;2022-09-30T10:19:32;14.81;72.88
69715;HTU21D;56981;53.532;49.398;2022-09-30T10:24:36;14.83;73.02
69715;HTU21D;56981;53.532;49.398;2022-09-30T10:27:02;14.81;73.22
69715;HTU21D;56981;53.532;49.398;2022-09-30T10:29:34;14.78;72.90
69715;HTU21D;56981;53.532;49.398;2022-09-30T10:32:03;14.71;72.68
69715;HTU21D;56981;53.532;49.398;2022-09-30T10:34:42;14.63;72.83
69715;HTU21D;56981;53.532;49.398;2022-09-30T10:37:20;14.55;73.19
69715;HTU21D;56981;53.532;49.398;2022-09-30T10:39:56;14.55;73.57
69715;HTU21D;56981;53.532;49.398;2022-09-30T10:42:24;14.58;73.28
69715;HTU21D;56981;53.532;49.398;2022-09-30T10:44:56;14.53;73.03
69715;HTU21D;56981;53.532;49.398;2022-09-30T10:47:24;14.45;73.20
69715;HTU21D;56981;53.532;49.398;2022-09-30T10:52:33;14.39;72.82
69715;HTU21D;56981;53.532;49.398;2022-09-30T10:55:06;14.35;73.72
69715;HTU21D;56981;53.532;49.398;2022-09-30T10:57:34;14.35;73.72
69715;HTU21D;56981;53.532;49.398;2022-09-30T11:00:07;14.25;73.54
69715;HTU21D;56981;53.532;49.398;2022-09-30T11:02:57;14.20;74.18
69715;HTU21D;56981;53.532;49.398;2022-09-30T11:05:34;14.19;75.05
69715;HTU21D;56981;53.532;49.398;2022-09-30T11:08:29;14.15;74.67
69715;HTU21D;56981;53.532;49.398;2022-09-30T11:13:36;14.08;74.82
69715;HTU21D;56981;53.532;49.398;2022-09-30T11:16:13;14.07;74.70
69715;HTU21D;56981;53.532;49.398;2022-09-30T11:18:48;14.11;74.96
69715;HTU21D;56981;53.532;49.398;2022-09-30T11:21:27;14.09;76.20
69715;HTU21D;56981;53.532;49.398;2022-09-30T11:27:27;14.10;75.05
69715;HTU21D;56981;53.532;49.398;2022-09-30T11:35:23;13.93;76.06
69715;HTU21D;56981;53.532;49.398;2022-09-30T11:38:03;13.84;76.23
69715;HTU21D;56981;53.532;49.398;2022-09-30T11:41:08;13.83;76.23
69715;HTU21D;56981;53.532;49.398;2022-09-30T11:43:58;13.82;76.37
69715;HTU21D;56981;53.532;49.398;2022-09-30T11:49:25;13.78;76.43
69715;HTU21D;56981;53.532;49.398;2022-09-30T11:58:08;13.85;76.17
69715;HTU21D;56981;53.532;49.398;2022-09-30T12:00:44;13.85;76.18
69715;HTU21D;56981;53.532;49.398;2022-09-30T12:03:24;13.79;77.02
69715;HTU21D;56981;53.532;49.398;2022-09-30T12:05:58;13.78;76.84
69715;HTU21D;56981;53.532;49.398;2022-09-30T12:08:41;13.81;76.43
69715;HTU21D;56981;53.532;49.398;2022-09-30T12:14:23;13.80;75.88
69715;HTU21D;56981;53.532;49.398;2022-09-30T12:16:50;13.78;76.14
69715;HTU21D;56981;53.532;49.398;2022-09-30T12:19:24;13.74;76.11
69715;HTU21D;56981;53.532;49.398;2022-09-30T12:24:38;13.61;76.95
69715;HTU21D;56981;53.532;49.398;2022-09-30T12:27:36;13.51;77.34
69715;HTU21D;56981;53.532;49.398;2022-09-30T12:30:12;13.49;77.75
69715;HTU21D;56981;53.532;49.398;2022-09-30T12:35:46;13.40;78.51
69715;HTU21D;56981;53.532;49.398;2022-09-30T12:41:41;13.39;78.95
69715;HTU21D;56981;53.532;49.398;2022-09-30T12:49:33;13.30;79.43
69715;HTU21D;56981;53.532;49.398;2022-09-30T12:52:05;13.24;79.23
69715;HTU21D;56981;53.532;49.398;2022-09-30T12:54:35;13.22;79.91
69715;HTU21D;56981;53.532;49.398;2022-09-30T12:57:06;13.19;79.40
69715;HTU21D;56981;53.532;49.398;2022-09-30T12:59:36;13.17;79.17
69715;HTU21D;56981;53.532;49.398;2022-09-30T13:02:04;13.16;79.25
69715;HTU21D;56981;53.532;49.398;2022-09-30T13:04:39;13.15;79.79
69715;HTU21D;56981;53.532;49.398;2022-09-30T13:07:15;13.16;79.95
69715;HTU21D;56981;53.532;49.398;2022-09-30T13:10:24;13.12;79.59
69715;HTU21D;56981;53.532;49.398;2022-09-30T13:23:41;12.96;80.40
69715;HTU21D;56981;53.532;49.398;2022-09-30T13:34:24;12.88;81.70
69715;HTU21D;56981;53.532;49.398;2022-09-30T13:39:28;12.90;81.49
69715;HTU21D;56981;53.532;49.398;2022-09-30T13:42:03;12.85;81.17
69715;HTU21D;56981;53.532;49.398;2022-09-30T13:45:01;12.82;81.20
69715;HTU21D;56981;53.532;49.398;2022-09-30T13:47:58;12.79;80.67
69715;HTU21D;56981;53.532;49.398;2022-09-30T13:50:29;12.76;81.06
69715;HTU21D;56981;53.532;49.398;2022-09-30T13:53:01;12.72;81.17
69715;HTU21D;56981;53.532;49.398;2022-09-30T13:55:35;12.66;81.31
69715;HTU21D;56981;53.532;49.398;2022-09-30T14:10:23;12.51;81.09
69715;HTU21D;56981;53.532;49.398;2022-09-30T14:18:36;12.43;80.69
69715;HTU21D;56981;53.532;49.398;2022-09-30T14:21:12;12.40;80.97
69715;HTU21D;56981;53.532;49.398;2022-09-30T14:23:43;12.35;81.40
69715;HTU21D;56981;53.532;49.398;2022-09-30T14:26:27;12.32;81.08
69715;HTU21D;56981;53.532;49.398;2022-09-30T14:31:47;12.32;81.59
69715;HTU21D;56981;53.532;49.398;2022-09-30T14:34:15;12.34;80.94
69715;HTU21D;56981;53.532;49.398;2022-09-30T14:36:43;12.34;80.87
69715;HTU21D;56981;53.532;49.398;2022-09-30T14:39:19;12.33;81.16
69715;HTU21D;56981;53.532;49.398;2022-09-30T14:41:56;12.33;80.99
69715;HTU21D;56981;53.532;49.398;2022-09-30T14:44:24;12.38;81.48
69715;HTU21D;56981;53.532;49.398;2022-09-30T14:46:52;12.41;81.03
69715;HTU21D;56981;53.532;49.398;2022-09-30T14:49:25;12.37;80.98
69715;HTU21D;56981;53.532;49.398;2022-09-30T14:51:58;12.32;80.90
69715;HTU21D;56981;53.532;49.398;2022-09-30T14:54:32;12.25;80.74
69715;HTU21D;56981;53.532;49.398;2022-09-30T14:57:00;12.22;81.13
69715;HTU21D;56981;53.532;49.398;2022-09-30T14:59:32;12.22;81.26
69715;HTU21D;56981;53.532;49.398;2022-09-30T15:02:11;12.18;81.07
69715;HTU21D;56981;53.532;49.398;2022-09-30T15:04:48;12.13;81.30
69715;HTU21D;56981;53.532;49.398;2022-09-30T15:07:15;12.12;81.62
69715;HTU21D;56981;53.532;49.398;2022-09-30T15:09:42;12.12;81.31
69715;HTU21D;56981;53.532;49.398;2022-09-30T15:12:12;12.10;81.34
69715;HTU21D;56981;53.532;49.398;2022-09-30T15:17:18;12.05;81.89
69715;HTU21D;56981;53.532;49.398;2022-09-30T15:19:45;12.04;81.43
69715;HTU21D;56981;53.532;49.398;2022-09-30T15:22:12;12.02;81.68
69715;HTU21D;56981;53.532;49.398;2022-09-30T15:24:39;12.01;82.04
69715;HTU21D;56981;53.532;49.398;2022-09-30T15:27:21;11.99;81.97
69715;HTU21D;56981;53.532;49.398;2022-09-30T15:29:54;12.00;81.86
69715;HTU21D;56981;53.532;49.398;2022-09-30T15:32:23;11.98;82.36
69715;HTU21D;56981;53.532;49.398;2022-09-30T15:34:50;12.00;82.28
69715;HTU21D;56981;53.532;49.398;2022-09-30T15:37:25;11.92;82.28
69715;HTU21D;56981;53.532;49.398;2022-09-30T15:39:54;11.92;81.88
69715;HTU21D;56981;53.532;49.398;2022-09-30T15:42:55;11.94;82.13
69715;HTU21D;56981;53.532;49.398;2022-09-30T15:45:38;11.93;82.39
69715;HTU21D;56981;53.532;49.398;2022-09-30T15:50:57;11.96;82.04
69715;HTU21D;56981;53.532;49.398;2022-09-30T15:53:30;11.90;82.24
69715;HTU21D;56981;53.532;49.398;2022-09-30T15:55:58;11.92;82.17
69715;HTU21D;56981;53.532;49.398;2022-09-30T16:03:42;11.92;82.42
69715;HTU21D;56981;53.532;49.398;2022-09-30T16:06:12;11.98;82.67
69715;HTU21D;56981;53.532;49.398;2022-09-30T16:08:51;11.96;82.25
69715;HTU21D;56981;53.532;49.398;2022-09-30T16:11:28;11.96;82.32
69715;HTU21D;56981;53.532;49.398;2022-09-30T16:13:55;11.98;82.02
69715;HTU21D;56981;53.532;49.398;2022-09-30T16:16:24;11.92;81.92
69715;HTU21D;56981;53.532;49.398;2022-09-30T16:18:52;11.94;81.80
69715;HTU21D;56981;53.532;49.398;2022-09-30T16:21:42;11.96;82.00
69715;HTU21D;56981;53.532;49.398;2022-09-30T16:27:19;12.03;81.60
69715;HTU21D;56981;53.532;49.398;2022-09-30T16:29:45;12.02;81.95
69715;HTU21D;56981;53.532;49.398;2022-09-30T16:32:11;12.02;82.07
69715;HTU21D;56981;53.532;49.398;2022-09-30T16:34:39;12.04;81.73
69715;HTU21D;56981;53.532;49.398;2022-09-30T16:37:17;12.03;81.80
69715;HTU21D;56981;53.532;49.398;2022-09-30T16:39:44;12.03;81.37
69715;HTU21D;56981;53.532;49.398;2022-09-30T16:42:13;11.98;81.64
69715;HTU21D;56981;53.532;49.398;2022-09-30T16:44:40;12.01;81.75
69715;HTU21D;56981;53.532;49.398;2022-09-30T16:47:13;11.97;82.23
69715;HTU21D;56981;53.532;49.398;2022-09-30T16:49:40;11.99;82.03
69715;HTU21D;56981;53.532;49.398;2022-09-30T16:52:10;11.99;81.73
69715;HTU21D;56981;53.532;49.398;2022-09-30T16:54:36;11.96;82.12
69715;HTU21D;56981;53.532;49.398;2022-09-30T16:57:02;11.94;82.05
69715;HTU21D;56981;53.532;49.398;2022-09-30T16:59:29;12.00;81.97
69715;HTU21D;56981;53.532;49.398;2022-09-30T17:01:58;12.05;81.88
69715;HTU21D;56981;53.532;49.398;2022-09-30T17:04:26;12.06;82.22
69715;HTU21D;56981;53.532;49.398;2022-09-30T17:06:52;12.06;82.25
69715;HTU21D;56981;53.532;49.398;2022-09-30T17:09:21;12.05;82.26
69715;HTU21D;56981;53.532;49.398;2022-09-30T17:11:47;12.10;82.47
69715;HTU21D;56981;53.532;49.398;2022-09-30T17:14:16;12.12;82.71
69715;HTU21D;56981;53.532;49.398;2022-09-30T17:16:42;12.14;82.55
69715;HTU21D;56981;53.532;49.398;2022-09-30T17:19:08;12.19;82.03
69715;HTU21D;56981;53.532;49.398;2022-09-30T17:21:34;12.18;82.12
69715;HTU21D;56981;53.532;49.398;2022-09-30T17:24:00;12.19;82.62
69715;HTU21D;56981;53.532;49.398;2022-09-30T17:26:26;12.26;82.69
69715;HTU21D;56981;53.532;49.398;2022-09-30T17:28:53;12.26;82.37
69715;HTU21D;56981;53.532;49.398;2022-09-30T17:31:19;12.27;81.66
69715;HTU21D;56981;53.532;49.398;2022-09-30T17:33:45;12.27;81.99
69715;HTU21D;56981;53.532;49.398;2022-09-30T17:36:12;12.26;82.42
69715;HTU21D;56981;53.532;49.398;2022-09-30T17:38:38;12.28;81.97
69715;HTU21D;56981;53.532;49.398;2022-09-30T17:41:05;12.27;82.87
69715;HTU21D;56981;53.532;49.398;2022-09-30T17:43:50;12.27;82.39
69715;HTU21D;56981;53.532;49.398;2022-09-30T17:46:17;12.20;82.25
69715;HTU21D;56981;53.532;49.398;2022-09-30T17:48:45;12.20;83.39
69715;HTU21D;56981;53.532;49.398;2022-09-30T17:51:13;12.23;82.88
69715;HTU21D;56981;53.532;49.398;2022-09-30T17:53:41;12.29;82.80
69715;HTU21D;56981;53.532;49.398;2022-09-30T17:56:14;12.29;81.51
69715;HTU21D;56981;53.532;49.398;2022-09-30T17:58:45;12.34;82.16
69715;HTU21D;56981;53.532;49.398;2022-09-30T18:01:17;12.34;81.31
69715;HTU21D;56981;53.532;49.398;2022-09-30T18:03:44;12.37;81.27
69715;HTU21D;56981;53.532;49.398;2022-09-30T18:06:10;12.28;81.97
69715;HTU21D;56981;53.532;49.398;2022-09-30T18:08:39;12.21;82.27
69715;HTU21D;56981;53.532;49.398;2022-09-30T18:11:05;12.17;83.11
69715;HTU21D;56981;53.532;49.398;2022-09-30T18:13:31;12.17;82.52
69715;HTU21D;56981;53.532;49.398;2022-09-30T18:15:57;12.20;82.04
69715;HTU21D;56981;53.532;49.398;2022-09-30T18:18:29;12.18;82.15
69715;HTU21D;56981;53.532;49.398;2022-09-30T18:20:55;12.18;81.73
69715;HTU21D;56981;53.532;49.398;2022-09-30T18:23:21;12.19;81.92
69715;HTU21D;56981;53.532;49.398;2022-09-30T18:25:47;12.17;82.09
69715;HTU21D;56981;53.532;49.398;2022-09-30T18:28:15;12.19;82.99
69715;HTU21D;56981;53.532;49.398;2022-09-30T18:30:41;12.18;82.33
69715;HTU21D;56981;53.532;49.398;2022-09-30T18:33:08;12.20;83.26